sensor_id;sensor_type;location;lat;lon;timestamp;P1;durP1;ratioP1;P2;durP2;ratioP2
53881;SDS011;39794;55.782;37.452;2022-08-18T00:01:09;16.77;;;8.10;;
53881;SDS011;39794;55.782;37.452;2022-08-18T00:03:40;15.48;;;7.72;;
53881;SDS011;39794;55.782;37.452;2022-08-18T00:08:56;13.63;;;7.55;;
53881;SDS011;39794;55.782;37.452;2022-08-18T00:11:28;16.40;;;8.05;;
53881;SDS011;39794;55.782;37.452;2022-08-18T00:14:10;16.20;;;7.80;;
53881;SDS011;39794;55.782;37.452;2022-08-18T00:16:50;19.27;;;7.47;;
53881;SDS011;39794;55.782;37.452;2022-08-18T00:19:20;13.77;;;7.40;;
53881;SDS011;39794;55.782;37.452;2022-08-18T00:22:10;15.27;;;8.30;;
53881;SDS011;39794;55.782;37.452;2022-08-18T00:24:40;16.23;;;7.80;;
53881;SDS011;39794;55.782;37.452;2022-08-18T00:27:15;17.05;;;8.02;;
53881;SDS011;39794;55.782;37.452;2022-08-18T00:29:56;14.45;;;7.80;;
53881;SDS011;39794;55.782;37.452;2022-08-18T00:32:26;15.10;;;8.52;;
53881;SDS011;39794;55.782;37.452;2022-08-18T00:34:56;17.45;;;8.40;;
53881;SDS011;39794;55.782;37.452;2022-08-18T00:37:24;21.50;;;8.18;;
53881;SDS011;39794;55.782;37.452;2022-08-18T00:39:53;14.52;;;8.27;;
53881;SDS011;39794;55.782;37.452;2022-08-18T00:42:23;13.13;;;7.70;;
53881;SDS011;39794;55.782;37.452;2022-08-18T00:45:00;12.75;;;7.63;;
53881;SDS011;39794;55.782;37.452;2022-08-18T00:47:31;13.90;;;8.68;;
53881;SDS011;39794;55.782;37.452;2022-08-18T00:50:12;18.13;;;8.80;;
53881;SDS011;39794;55.782;37.452;2022-08-18T00:52:44;16.93;;;8.43;;
53881;SDS011;39794;55.782;37.452;2022-08-18T00:55:15;17.02;;;8.85;;
53881;SDS011;39794;55.782;37.452;2022-08-18T00:57:46;15.05;;;8.40;;
53881;SDS011;39794;55.782;37.452;2022-08-18T01:00:17;16.38;;;8.93;;
53881;SDS011;39794;55.782;37.452;2022-08-18T01:02:49;12.73;;;7.65;;
53881;SDS011;39794;55.782;37.452;2022-08-18T01:05:20;14.90;;;8.85;;
53881;SDS011;39794;55.782;37.452;2022-08-18T01:07:51;13.50;;;8.52;;
53881;SDS011;39794;55.782;37.452;2022-08-18T01:10:21;20.02;;;8.63;;
53881;SDS011;39794;55.782;37.452;2022-08-18T01:12:52;20.38;;;9.23;;
53881;SDS011;39794;55.782;37.452;2022-08-18T01:15:23;17.55;;;8.25;;
53881;SDS011;39794;55.782;37.452;2022-08-18T01:17:55;16.95;;;8.02;;
53881;SDS011;39794;55.782;37.452;2022-08-18T01:20:44;11.45;;;7.38;;
53881;SDS011;39794;55.782;37.452;2022-08-18T01:23:44;18.17;;;7.93;;
53881;SDS011;39794;55.782;37.452;2022-08-18T01:26:13;14.65;;;8.32;;
53881;SDS011;39794;55.782;37.452;2022-08-18T01:28:43;12.63;;;8.70;;
53881;SDS011;39794;55.782;37.452;2022-08-18T01:31:27;18.88;;;8.75;;
53881;SDS011;39794;55.782;37.452;2022-08-18T01:33:58;18.77;;;8.70;;
53881;SDS011;39794;55.782;37.452;2022-08-18T01:36:27;11.80;;;7.90;;
53881;SDS011;39794;55.782;37.452;2022-08-18T01:38:57;18.17;;;8.38;;
53881;SDS011;39794;55.782;37.452;2022-08-18T01:41:26;12.75;;;8.40;;
53881;SDS011;39794;55.782;37.452;2022-08-18T01:44:00;16.70;;;8.18;;
53881;SDS011;39794;55.782;37.452;2022-08-18T01:46:31;13.82;;;7.88;;
53881;SDS011;39794;55.782;37.452;2022-08-18T01:49:01;16.20;;;8.23;;
53881;SDS011;39794;55.782;37.452;2022-08-18T01:51:31;15.75;;;8.02;;
53881;SDS011;39794;55.782;37.452;2022-08-18T01:54:09;12.40;;;8.02;;
53881;SDS011;39794;55.782;37.452;2022-08-18T01:56:39;17.13;;;7.82;;
53881;SDS011;39794;55.782;37.452;2022-08-18T01:59:09;14.85;;;7.60;;
53881;SDS011;39794;55.782;37.452;2022-08-18T02:01:42;14.50;;;7.65;;
53881;SDS011;39794;55.782;37.452;2022-08-18T02:04:19;15.18;;;7.47;;
53881;SDS011;39794;55.782;37.452;2022-08-18T02:07:02;12.95;;;7.25;;
53881;SDS011;39794;55.782;37.452;2022-08-18T02:09:36;11.73;;;7.30;;
53881;SDS011;39794;55.782;37.452;2022-08-18T02:12:06;12.45;;;7.78;;
53881;SDS011;39794;55.782;37.452;2022-08-18T02:14:35;14.95;;;7.90;;
53881;SDS011;39794;55.782;37.452;2022-08-18T02:17:04;18.30;;;7.80;;
53881;SDS011;39794;55.782;37.452;2022-08-18T02:19:34;13.90;;;7.32;;
53881;SDS011;39794;55.782;37.452;2022-08-18T02:22:05;14.00;;;7.25;;
53881;SDS011;39794;55.782;37.452;2022-08-18T02:24:36;12.57;;;7.75;;
53881;SDS011;39794;55.782;37.452;2022-08-18T02:27:05;13.25;;;7.68;;
53881;SDS011;39794;55.782;37.452;2022-08-18T02:29:35;12.02;;;7.75;;
53881;SDS011;39794;55.782;37.452;2022-08-18T02:32:06;12.00;;;7.82;;
53881;SDS011;39794;55.782;37.452;2022-08-18T02:34:35;15.63;;;7.15;;
53881;SDS011;39794;55.782;37.452;2022-08-18T02:37:04;18.70;;;7.43;;
53881;SDS011;39794;55.782;37.452;2022-08-18T02:39:38;12.75;;;7.35;;
53881;SDS011;39794;55.782;37.452;2022-08-18T02:42:07;18.27;;;8.60;;
53881;SDS011;39794;55.782;37.452;2022-08-18T02:44:36;14.73;;;7.30;;
53881;SDS011;39794;55.782;37.452;2022-08-18T02:47:05;21.88;;;7.53;;
53881;SDS011;39794;55.782;37.452;2022-08-18T02:49:33;14.75;;;7.90;;
53881;SDS011;39794;55.782;37.452;2022-08-18T02:52:03;13.77;;;7.55;;
53881;SDS011;39794;55.782;37.452;2022-08-18T02:54:32;14.73;;;7.82;;
53881;SDS011;39794;55.782;37.452;2022-08-18T02:57:06;12.10;;;7.55;;
53881;SDS011;39794;55.782;37.452;2022-08-18T02:59:36;13.00;;;7.20;;
53881;SDS011;39794;55.782;37.452;2022-08-18T03:02:06;14.25;;;7.20;;
53881;SDS011;39794;55.782;37.452;2022-08-18T03:04:35;13.35;;;7.95;;
53881;SDS011;39794;55.782;37.452;2022-08-18T03:07:06;16.90;;;7.78;;
53881;SDS011;39794;55.782;37.452;2022-08-18T03:09:35;12.80;;;8.13;;
53881;SDS011;39794;55.782;37.452;2022-08-18T03:12:06;23.35;;;9.02;;
53881;SDS011;39794;55.782;37.452;2022-08-18T03:14:35;12.80;;;8.18;;
53881;SDS011;39794;55.782;37.452;2022-08-18T03:17:06;18.17;;;8.60;;
53881;SDS011;39794;55.782;37.452;2022-08-18T03:19:36;13.93;;;8.07;;
53881;SDS011;39794;55.782;37.452;2022-08-18T03:22:06;14.73;;;8.75;;
53881;SDS011;39794;55.782;37.452;2022-08-18T03:24:55;18.08;;;9.30;;
53881;SDS011;39794;55.782;37.452;2022-08-18T03:27:25;18.02;;;8.57;;
53881;SDS011;39794;55.782;37.452;2022-08-18T03:29:54;15.63;;;9.68;;
53881;SDS011;39794;55.782;37.452;2022-08-18T03:32:24;17.77;;;10.50;;
53881;SDS011;39794;55.782;37.452;2022-08-18T03:34:53;24.40;;;15.50;;
53881;SDS011;39794;55.782;37.452;2022-08-18T03:37:22;24.05;;;16.60;;
53881;SDS011;39794;55.782;37.452;2022-08-18T03:39:50;32.17;;;21.17;;
53881;SDS011;39794;55.782;37.452;2022-08-18T03:42:19;38.33;;;20.95;;
53881;SDS011;39794;55.782;37.452;2022-08-18T03:44:49;29.02;;;18.95;;
53881;SDS011;39794;55.782;37.452;2022-08-18T03:47:18;28.40;;;16.17;;
53881;SDS011;39794;55.782;37.452;2022-08-18T03:49:47;30.23;;;16.88;;
53881;SDS011;39794;55.782;37.452;2022-08-18T03:52:16;29.48;;;17.05;;
53881;SDS011;39794;55.782;37.452;2022-08-18T03:54:45;24.92;;;17.33;;
53881;SDS011;39794;55.782;37.452;2022-08-18T03:57:14;29.55;;;17.75;;
53881;SDS011;39794;55.782;37.452;2022-08-18T03:59:42;25.67;;;16.13;;
53881;SDS011;39794;55.782;37.452;2022-08-18T04:02:13;29.38;;;18.10;;
53881;SDS011;39794;55.782;37.452;2022-08-18T04:04:42;34.38;;;22.08;;
53881;SDS011;39794;55.782;37.452;2022-08-18T04:07:11;34.92;;;18.15;;
53881;SDS011;39794;55.782;37.452;2022-08-18T04:09:42;35.70;;;20.63;;
53881;SDS011;39794;55.782;37.452;2022-08-18T04:12:13;32.35;;;22.42;;
53881;SDS011;39794;55.782;37.452;2022-08-18T04:14:46;36.95;;;27.30;;
53881;SDS011;39794;55.782;37.452;2022-08-18T04:17:18;43.15;;;26.10;;
53881;SDS011;39794;55.782;37.452;2022-08-18T04:19:50;46.92;;;31.85;;
53881;SDS011;39794;55.782;37.452;2022-08-18T04:22:18;46.35;;;31.17;;
53881;SDS011;39794;55.782;37.452;2022-08-18T04:24:48;43.58;;;29.65;;
53881;SDS011;39794;55.782;37.452;2022-08-18T04:27:17;43.97;;;30.20;;
53881;SDS011;39794;55.782;37.452;2022-08-18T04:29:46;47.90;;;32.47;;
53881;SDS011;39794;55.782;37.452;2022-08-18T04:32:17;58.70;;;41.08;;
53881;SDS011;39794;55.782;37.452;2022-08-18T04:34:46;59.25;;;39.63;;
53881;SDS011;39794;55.782;37.452;2022-08-18T04:37:14;56.20;;;39.45;;
53881;SDS011;39794;55.782;37.452;2022-08-18T04:39:44;54.33;;;39.50;;
53881;SDS011;39794;55.782;37.452;2022-08-18T04:42:13;62.58;;;42.97;;
53881;SDS011;39794;55.782;37.452;2022-08-18T04:44:41;68.93;;;43.72;;
53881;SDS011;39794;55.782;37.452;2022-08-18T04:47:10;68.38;;;48.70;;
53881;SDS011;39794;55.782;37.452;2022-08-18T04:49:40;79.47;;;50.47;;
53881;SDS011;39794;55.782;37.452;2022-08-18T04:52:10;89.75;;;63.20;;
53881;SDS011;39794;55.782;37.452;2022-08-18T04:55:07;94.78;;;67.75;;
53881;SDS011;39794;55.782;37.452;2022-08-18T04:57:37;107.95;;;77.68;;
53881;SDS011;39794;55.782;37.452;2022-08-18T05:00:08;107.10;;;75.53;;
53881;SDS011;39794;55.782;37.452;2022-08-18T05:02:39;121.03;;;90.63;;
53881;SDS011;39794;55.782;37.452;2022-08-18T05:05:09;143.30;;;100.53;;
53881;SDS011;39794;55.782;37.452;2022-08-18T05:07:41;150.18;;;111.47;;
53881;SDS011;39794;55.782;37.452;2022-08-18T05:10:12;166.63;;;119.30;;
53881;SDS011;39794;55.782;37.452;2022-08-18T05:15:14;159.60;;;115.43;;
53881;SDS011;39794;55.782;37.452;2022-08-18T05:17:44;154.60;;;115.43;;
53881;SDS011;39794;55.782;37.452;2022-08-18T05:20:18;150.40;;;111.53;;
53881;SDS011;39794;55.782;37.452;2022-08-18T05:22:48;150.13;;;113.68;;
53881;SDS011;39794;55.782;37.452;2022-08-18T05:25:17;165.70;;;120.95;;
53881;SDS011;39794;55.782;37.452;2022-08-18T05:27:46;161.98;;;117.82;;
53881;SDS011;39794;55.782;37.452;2022-08-18T05:30:16;165.95;;;118.35;;
53881;SDS011;39794;55.782;37.452;2022-08-18T05:32:45;160.93;;;117.10;;
53881;SDS011;39794;55.782;37.452;2022-08-18T05:35:21;163.20;;;118.22;;
53881;SDS011;39794;55.782;37.452;2022-08-18T05:37:55;160.57;;;114.97;;
53881;SDS011;39794;55.782;37.452;2022-08-18T05:40:27;152.80;;;107.40;;
53881;SDS011;39794;55.782;37.452;2022-08-18T05:42:57;155.40;;;106.68;;
53881;SDS011;39794;55.782;37.452;2022-08-18T05:45:26;145.80;;;106.57;;
53881;SDS011;39794;55.782;37.452;2022-08-18T05:47:56;151.18;;;105.22;;
53881;SDS011;39794;55.782;37.452;2022-08-18T05:50:27;134.15;;;102.60;;
53881;SDS011;39794;55.782;37.452;2022-08-18T05:53:00;130.98;;;97.90;;
53881;SDS011;39794;55.782;37.452;2022-08-18T05:55:41;122.80;;;93.75;;
53881;SDS011;39794;55.782;37.452;2022-08-18T05:58:31;130.27;;;94.63;;
53881;SDS011;39794;55.782;37.452;2022-08-18T06:01:04;121.22;;;90.10;;
53881;SDS011;39794;55.782;37.452;2022-08-18T06:03:35;115.72;;;88.13;;
53881;SDS011;39794;55.782;37.452;2022-08-18T06:06:15;124.82;;;89.28;;
53881;SDS011;39794;55.782;37.452;2022-08-18T06:08:49;120.63;;;86.40;;
53881;SDS011;39794;55.782;37.452;2022-08-18T06:11:20;119.25;;;86.18;;
53881;SDS011;39794;55.782;37.452;2022-08-18T06:13:49;108.65;;;80.03;;
53881;SDS011;39794;55.782;37.452;2022-08-18T06:16:35;117.90;;;86.47;;
53881;SDS011;39794;55.782;37.452;2022-08-18T06:19:15;111.85;;;82.80;;
53881;SDS011;39794;55.782;37.452;2022-08-18T06:21:55;117.45;;;82.72;;
53881;SDS011;39794;55.782;37.452;2022-08-18T06:24:28;116.30;;;80.72;;
53881;SDS011;39794;55.782;37.452;2022-08-18T06:27:02;108.43;;;80.90;;
53881;SDS011;39794;55.782;37.452;2022-08-18T06:29:39;115.90;;;78.38;;
53881;SDS011;39794;55.782;37.452;2022-08-18T06:32:18;112.45;;;82.45;;
53881;SDS011;39794;55.782;37.452;2022-08-18T06:34:58;113.18;;;78.75;;
53881;SDS011;39794;55.782;37.452;2022-08-18T06:37:35;105.13;;;74.35;;
53881;SDS011;39794;55.782;37.452;2022-08-18T06:40:27;103.25;;;78.18;;
53881;SDS011;39794;55.782;37.452;2022-08-18T06:42:56;106.18;;;73.20;;
53881;SDS011;39794;55.782;37.452;2022-08-18T06:45:29;94.40;;;69.50;;
53881;SDS011;39794;55.782;37.452;2022-08-18T06:48:03;98.75;;;65.13;;
53881;SDS011;39794;55.782;37.452;2022-08-18T06:50:45;98.18;;;72.32;;
53881;SDS011;39794;55.782;37.452;2022-08-18T06:53:18;94.05;;;68.93;;
53881;SDS011;39794;55.782;37.452;2022-08-18T06:55:54;102.38;;;72.63;;
53881;SDS011;39794;55.782;37.452;2022-08-18T06:58:24;103.22;;;74.93;;
53881;SDS011;39794;55.782;37.452;2022-08-18T07:00:58;104.72;;;77.07;;
53881;SDS011;39794;55.782;37.452;2022-08-18T07:03:42;112.30;;;77.85;;
53881;SDS011;39794;55.782;37.452;2022-08-18T07:06:23;107.63;;;76.28;;
53881;SDS011;39794;55.782;37.452;2022-08-18T07:08:55;105.68;;;76.25;;
53881;SDS011;39794;55.782;37.452;2022-08-18T07:11:57;105.50;;;73.72;;
53881;SDS011;39794;55.782;37.452;2022-08-18T07:14:35;97.05;;;70.10;;
53881;SDS011;39794;55.782;37.452;2022-08-18T07:17:10;83.10;;;55.40;;
53881;SDS011;39794;55.782;37.452;2022-08-18T07:19:41;71.93;;;48.92;;
53881;SDS011;39794;55.782;37.452;2022-08-18T07:22:10;61.80;;;42.50;;
53881;SDS011;39794;55.782;37.452;2022-08-18T07:24:44;62.67;;;39.55;;
53881;SDS011;39794;55.782;37.452;2022-08-18T07:27:15;48.60;;;32.03;;
53881;SDS011;39794;55.782;37.452;2022-08-18T07:29:57;40.35;;;28.98;;
53881;SDS011;39794;55.782;37.452;2022-08-18T07:32:30;41.97;;;27.23;;
53881;SDS011;39794;55.782;37.452;2022-08-18T07:35:01;37.92;;;25.55;;
53881;SDS011;39794;55.782;37.452;2022-08-18T07:37:34;34.45;;;23.77;;
53881;SDS011;39794;55.782;37.452;2022-08-18T07:40:10;40.92;;;25.88;;
53881;SDS011;39794;55.782;37.452;2022-08-18T07:42:47;42.03;;;22.52;;
53881;SDS011;39794;55.782;37.452;2022-08-18T07:45:32;31.60;;;18.50;;
53881;SDS011;39794;55.782;37.452;2022-08-18T07:48:06;26.10;;;17.13;;
53881;SDS011;39794;55.782;37.452;2022-08-18T07:50:59;23.98;;;14.88;;
53881;SDS011;39794;55.782;37.452;2022-08-18T07:53:46;22.35;;;14.48;;
53881;SDS011;39794;55.782;37.452;2022-08-18T07:56:26;18.58;;;11.05;;
53881;SDS011;39794;55.782;37.452;2022-08-18T07:59:00;28.80;;;12.50;;
53881;SDS011;39794;55.782;37.452;2022-08-18T08:01:33;19.63;;;11.80;;
53881;SDS011;39794;55.782;37.452;2022-08-18T08:06:53;20.77;;;10.63;;
53881;SDS011;39794;55.782;37.452;2022-08-18T08:12:22;25.13;;;9.77;;
53881;SDS011;39794;55.782;37.452;2022-08-18T08:14:59;19.23;;;10.25;;
53881;SDS011;39794;55.782;37.452;2022-08-18T08:17:36;21.52;;;8.35;;
53881;SDS011;39794;55.782;37.452;2022-08-18T08:20:11;12.27;;;7.95;;
53881;SDS011;39794;55.782;37.452;2022-08-18T08:22:50;11.50;;;7.05;;
53881;SDS011;39794;55.782;37.452;2022-08-18T08:25:25;11.68;;;6.03;;
53881;SDS011;39794;55.782;37.452;2022-08-18T08:28:16;14.88;;;6.85;;
53881;SDS011;39794;55.782;37.452;2022-08-18T08:30:54;17.42;;;6.50;;
53881;SDS011;39794;55.782;37.452;2022-08-18T08:33:48;16.38;;;6.72;;
53881;SDS011;39794;55.782;37.452;2022-08-18T08:36:32;16.83;;;6.13;;
53881;SDS011;39794;55.782;37.452;2022-08-18T08:39:04;10.93;;;5.88;;
53881;SDS011;39794;55.782;37.452;2022-08-18T08:41:37;13.38;;;6.00;;
53881;SDS011;39794;55.782;37.452;2022-08-18T08:44:12;12.70;;;6.13;;
53881;SDS011;39794;55.782;37.452;2022-08-18T08:46:43;10.75;;;6.70;;
53881;SDS011;39794;55.782;37.452;2022-08-18T08:49:20;9.05;;;5.70;;
53881;SDS011;39794;55.782;37.452;2022-08-18T08:52:00;13.68;;;4.93;;
53881;SDS011;39794;55.782;37.452;2022-08-18T08:54:35;12.77;;;5.32;;
53881;SDS011;39794;55.782;37.452;2022-08-18T08:57:08;6.63;;;3.97;;
53881;SDS011;39794;55.782;37.452;2022-08-18T08:59:39;8.77;;;3.88;;
53881;SDS011;39794;55.782;37.452;2022-08-18T09:02:35;11.80;;;4.20;;
53881;SDS011;39794;55.782;37.452;2022-08-18T09:05:17;6.43;;;3.97;;
53881;SDS011;39794;55.782;37.452;2022-08-18T09:14:00;12.07;;;3.05;;
53881;SDS011;39794;55.782;37.452;2022-08-18T09:16:43;15.57;;;3.65;;
53881;SDS011;39794;55.782;37.452;2022-08-18T09:22:08;5.72;;;2.50;;
53881;SDS011;39794;55.782;37.452;2022-08-18T09:24:44;6.15;;;2.85;;
53881;SDS011;39794;55.782;37.452;2022-08-18T09:27:22;6.43;;;2.40;;
53881;SDS011;39794;55.782;37.452;2022-08-18T09:36:15;7.80;;;2.95;;
53881;SDS011;39794;55.782;37.452;2022-08-18T09:38:52;7.20;;;2.80;;
53881;SDS011;39794;55.782;37.452;2022-08-18T09:41:47;11.48;;;3.00;;
53881;SDS011;39794;55.782;37.452;2022-08-18T09:47:56;6.95;;;3.08;;
53881;SDS011;39794;55.782;37.452;2022-08-18T09:53:32;6.03;;;3.10;;
53881;SDS011;39794;55.782;37.452;2022-08-18T09:56:05;7.13;;;3.55;;
53881;SDS011;39794;55.782;37.452;2022-08-18T09:58:50;8.80;;;3.80;;
53881;SDS011;39794;55.782;37.452;2022-08-18T10:01:35;8.30;;;3.72;;
53881;SDS011;39794;55.782;37.452;2022-08-18T10:04:26;9.17;;;3.33;;
53881;SDS011;39794;55.782;37.452;2022-08-18T10:07:14;9.00;;;3.58;;
53881;SDS011;39794;55.782;37.452;2022-08-18T10:09:50;8.82;;;3.60;;
53881;SDS011;39794;55.782;37.452;2022-08-18T10:12:31;10.55;;;3.72;;
53881;SDS011;39794;55.782;37.452;2022-08-18T10:15:18;9.35;;;3.20;;
53881;SDS011;39794;55.782;37.452;2022-08-18T10:21:07;6.85;;;3.33;;
53881;SDS011;39794;55.782;37.452;2022-08-18T10:23:48;8.48;;;3.30;;
53881;SDS011;39794;55.782;37.452;2022-08-18T10:29:48;3.85;;;2.75;;
53881;SDS011;39794;55.782;37.452;2022-08-18T10:38:37;5.50;;;3.00;;
53881;SDS011;39794;55.782;37.452;2022-08-18T10:41:25;9.90;;;3.40;;
53881;SDS011;39794;55.782;37.452;2022-08-18T10:43:57;2.97;;;2.13;;
53881;SDS011;39794;55.782;37.452;2022-08-18T10:46:46;6.15;;;3.08;;
53881;SDS011;39794;55.782;37.452;2022-08-18T10:49:16;7.82;;;2.72;;
53881;SDS011;39794;55.782;37.452;2022-08-18T10:52:04;7.38;;;2.92;;
53881;SDS011;39794;55.782;37.452;2022-08-18T10:57:41;10.77;;;3.42;;
53881;SDS011;39794;55.782;37.452;2022-08-18T11:00:39;6.38;;;2.80;;
53881;SDS011;39794;55.782;37.452;2022-08-18T11:03:15;8.30;;;2.75;;
53881;SDS011;39794;55.782;37.452;2022-08-18T11:06:15;9.68;;;2.88;;
53881;SDS011;39794;55.782;37.452;2022-08-18T11:08:49;6.55;;;2.80;;
53881;SDS011;39794;55.782;37.452;2022-08-18T11:11:24;6.18;;;2.83;;
53881;SDS011;39794;55.782;37.452;2022-08-18T11:14:06;4.22;;;2.25;;
53881;SDS011;39794;55.782;37.452;2022-08-18T11:16:44;5.80;;;2.40;;
53881;SDS011;39794;55.782;37.452;2022-08-18T11:19:19;10.98;;;2.50;;
53881;SDS011;39794;55.782;37.452;2022-08-18T11:21:49;4.40;;;2.50;;
53881;SDS011;39794;55.782;37.452;2022-08-18T11:24:19;4.60;;;2.40;;
53881;SDS011;39794;55.782;37.452;2022-08-18T11:26:51;3.95;;;2.10;;
53881;SDS011;39794;55.782;37.452;2022-08-18T11:29:24;2.90;;;1.48;;
53881;SDS011;39794;55.782;37.452;2022-08-18T11:32:00;5.78;;;2.72;;
53881;SDS011;39794;55.782;37.452;2022-08-18T11:35:00;10.43;;;2.50;;
53881;SDS011;39794;55.782;37.452;2022-08-18T11:37:34;8.68;;;2.35;;
53881;SDS011;39794;55.782;37.452;2022-08-18T11:40:20;7.97;;;2.60;;
53881;SDS011;39794;55.782;37.452;2022-08-18T11:43:15;9.07;;;2.42;;
53881;SDS011;39794;55.782;37.452;2022-08-18T11:45:50;4.68;;;2.20;;
53881;SDS011;39794;55.782;37.452;2022-08-18T11:48:21;6.28;;;2.13;;
53881;SDS011;39794;55.782;37.452;2022-08-18T11:51:18;11.88;;;2.83;;
53881;SDS011;39794;55.782;37.452;2022-08-18T11:53:52;7.65;;;2.63;;
53881;SDS011;39794;55.782;37.452;2022-08-18T11:56:26;8.65;;;2.40;;
53881;SDS011;39794;55.782;37.452;2022-08-18T11:59:03;3.50;;;1.98;;
53881;SDS011;39794;55.782;37.452;2022-08-18T12:01:39;8.98;;;2.50;;
53881;SDS011;39794;55.782;37.452;2022-08-18T12:04:20;5.73;;;1.90;;
53881;SDS011;39794;55.782;37.452;2022-08-18T12:06:56;8.77;;;2.30;;
53881;SDS011;39794;55.782;37.452;2022-08-18T12:09:35;3.47;;;1.95;;
53881;SDS011;39794;55.782;37.452;2022-08-18T12:12:27;2.42;;;1.83;;
53881;SDS011;39794;55.782;37.452;2022-08-18T12:14:58;10.75;;;3.30;;
53881;SDS011;39794;55.782;37.452;2022-08-18T12:17:45;2.88;;;2.00;;
53881;SDS011;39794;55.782;37.452;2022-08-18T12:20:34;4.45;;;1.70;;
53881;SDS011;39794;55.782;37.452;2022-08-18T12:23:02;4.38;;;1.85;;
53881;SDS011;39794;55.782;37.452;2022-08-18T12:25:31;2.38;;;1.80;;
53881;SDS011;39794;55.782;37.452;2022-08-18T12:28:04;5.57;;;1.80;;
53881;SDS011;39794;55.782;37.452;2022-08-18T12:30:36;10.27;;;2.28;;
53881;SDS011;39794;55.782;37.452;2022-08-18T12:33:09;5.25;;;1.90;;
53881;SDS011;39794;55.782;37.452;2022-08-18T12:35:38;9.10;;;1.70;;
53881;SDS011;39794;55.782;37.452;2022-08-18T12:38:07;5.78;;;1.70;;
53881;SDS011;39794;55.782;37.452;2022-08-18T12:40:39;4.38;;;1.70;;
53881;SDS011;39794;55.782;37.452;2022-08-18T12:43:09;6.43;;;2.00;;
53881;SDS011;39794;55.782;37.452;2022-08-18T12:45:40;4.05;;;1.90;;
53881;SDS011;39794;55.782;37.452;2022-08-18T12:48:10;6.05;;;2.00;;
53881;SDS011;39794;55.782;37.452;2022-08-18T12:50:40;2.33;;;1.88;;
53881;SDS011;39794;55.782;37.452;2022-08-18T12:53:24;6.40;;;1.65;;
53881;SDS011;39794;55.782;37.452;2022-08-18T12:56:04;4.25;;;1.50;;
53881;SDS011;39794;55.782;37.452;2022-08-18T12:58:37;4.25;;;1.50;;
53881;SDS011;39794;55.782;37.452;2022-08-18T13:01:06;5.13;;;1.88;;
53881;SDS011;39794;55.782;37.452;2022-08-18T13:03:37;2.92;;;1.70;;
53881;SDS011;39794;55.782;37.452;2022-08-18T13:06:08;6.82;;;1.52;;
53881;SDS011;39794;55.782;37.452;2022-08-18T13:08:37;7.47;;;1.77;;
53881;SDS011;39794;55.782;37.452;2022-08-18T13:11:16;4.35;;;1.52;;
53881;SDS011;39794;55.782;37.452;2022-08-18T13:13:51;3.03;;;1.40;;
53881;SDS011;39794;55.782;37.452;2022-08-18T13:16:22;8.93;;;1.80;;
53881;SDS011;39794;55.782;37.452;2022-08-18T13:19:13;8.68;;;2.38;;
53881;SDS011;39794;55.782;37.452;2022-08-18T13:21:42;5.40;;;1.98;;
53881;SDS011;39794;55.782;37.452;2022-08-18T13:24:11;5.32;;;1.98;;
53881;SDS011;39794;55.782;37.452;2022-08-18T13:26:43;3.35;;;1.77;;
53881;SDS011;39794;55.782;37.452;2022-08-18T13:29:14;7.80;;;2.03;;
53881;SDS011;39794;55.782;37.452;2022-08-18T13:31:43;5.68;;;1.70;;
53881;SDS011;39794;55.782;37.452;2022-08-18T13:34:25;4.25;;;1.50;;
53881;SDS011;39794;55.782;37.452;2022-08-18T13:36:55;6.72;;;1.83;;
53881;SDS011;39794;55.782;37.452;2022-08-18T13:39:25;1.65;;;1.38;;
53881;SDS011;39794;55.782;37.452;2022-08-18T13:42:00;3.63;;;1.75;;
53881;SDS011;39794;55.782;37.452;2022-08-18T13:44:49;3.15;;;1.63;;
53881;SDS011;39794;55.782;37.452;2022-08-18T13:47:22;7.63;;;1.90;;
53881;SDS011;39794;55.782;37.452;2022-08-18T13:49:57;4.10;;;1.50;;
53881;SDS011;39794;55.782;37.452;2022-08-18T13:52:30;7.13;;;2.40;;
53881;SDS011;39794;55.782;37.452;2022-08-18T13:55:11;8.45;;;2.15;;
53881;SDS011;39794;55.782;37.452;2022-08-18T13:57:43;4.77;;;2.00;;
53881;SDS011;39794;55.782;37.452;2022-08-18T14:00:19;5.18;;;2.17;;
53881;SDS011;39794;55.782;37.452;2022-08-18T14:02:56;5.35;;;2.22;;
53881;SDS011;39794;55.782;37.452;2022-08-18T14:05:32;6.07;;;2.00;;
53881;SDS011;39794;55.782;37.452;2022-08-18T14:08:17;7.03;;;2.17;;
53881;SDS011;39794;55.782;37.452;2022-08-18T14:10:47;4.90;;;2.22;;
53881;SDS011;39794;55.782;37.452;2022-08-18T14:13:18;3.45;;;1.90;;
53881;SDS011;39794;55.782;37.452;2022-08-18T14:15:56;6.13;;;2.10;;
53881;SDS011;39794;55.782;37.452;2022-08-18T14:18:30;4.88;;;2.08;;
53881;SDS011;39794;55.782;37.452;2022-08-18T14:21:06;5.30;;;2.03;;
53881;SDS011;39794;55.782;37.452;2022-08-18T14:23:52;3.30;;;1.98;;
53881;SDS011;39794;55.782;37.452;2022-08-18T14:26:40;6.05;;;2.13;;
53881;SDS011;39794;55.782;37.452;2022-08-18T14:29:16;6.63;;;2.42;;
53881;SDS011;39794;55.782;37.452;2022-08-18T14:32:06;5.25;;;2.20;;
53881;SDS011;39794;55.782;37.452;2022-08-18T14:34:43;3.50;;;2.05;;
53881;SDS011;39794;55.782;37.452;2022-08-18T14:37:18;2.45;;;1.77;;
53881;SDS011;39794;55.782;37.452;2022-08-18T14:39:48;3.42;;;2.10;;
53881;SDS011;39794;55.782;37.452;2022-08-18T14:42:20;3.05;;;1.85;;
53881;SDS011;39794;55.782;37.452;2022-08-18T14:45:09;4.13;;;1.98;;
53881;SDS011;39794;55.782;37.452;2022-08-18T14:48:00;4.97;;;2.28;;
53881;SDS011;39794;55.782;37.452;2022-08-18T14:50:34;5.50;;;2.30;;
53881;SDS011;39794;55.782;37.452;2022-08-18T14:53:05;5.95;;;2.85;;
53881;SDS011;39794;55.782;37.452;2022-08-18T14:55:34;5.60;;;2.90;;
53881;SDS011;39794;55.782;37.452;2022-08-18T14:58:04;5.65;;;2.78;;
53881;SDS011;39794;55.782;37.452;2022-08-18T15:00:33;9.60;;;3.92;;
53881;SDS011;39794;55.782;37.452;2022-08-18T15:03:20;9.43;;;3.55;;
53881;SDS011;39794;55.782;37.452;2022-08-18T15:05:57;4.25;;;2.55;;
53881;SDS011;39794;55.782;37.452;2022-08-18T15:11:02;8.52;;;3.20;;
53881;SDS011;39794;55.782;37.452;2022-08-18T15:13:38;5.00;;;3.45;;
53881;SDS011;39794;55.782;37.452;2022-08-18T15:16:12;9.27;;;3.47;;
53881;SDS011;39794;55.782;37.452;2022-08-18T15:18:41;6.15;;;3.67;;
53881;SDS011;39794;55.782;37.452;2022-08-18T15:21:11;7.00;;;3.00;;
53881;SDS011;39794;55.782;37.452;2022-08-18T15:24:05;4.30;;;2.88;;
53881;SDS011;39794;55.782;37.452;2022-08-18T15:26:52;7.10;;;3.70;;
53881;SDS011;39794;55.782;37.452;2022-08-18T15:29:32;8.00;;;3.67;;
53881;SDS011;39794;55.782;37.452;2022-08-18T15:32:07;9.63;;;3.72;;
53881;SDS011;39794;55.782;37.452;2022-08-18T15:34:39;8.85;;;3.38;;
53881;SDS011;39794;55.782;37.452;2022-08-18T15:37:16;6.28;;;3.22;;
53881;SDS011;39794;55.782;37.452;2022-08-18T15:42:29;7.90;;;3.67;;
53881;SDS011;39794;55.782;37.452;2022-08-18T15:45:00;6.65;;;3.58;;
53881;SDS011;39794;55.782;37.452;2022-08-18T15:47:39;4.60;;;3.10;;
53881;SDS011;39794;55.782;37.452;2022-08-18T15:50:12;6.07;;;3.00;;
53881;SDS011;39794;55.782;37.452;2022-08-18T15:52:52;7.38;;;2.83;;
53881;SDS011;39794;55.782;37.452;2022-08-18T15:55:27;5.78;;;3.22;;
53881;SDS011;39794;55.782;37.452;2022-08-18T15:58:03;4.32;;;3.33;;
53881;SDS011;39794;55.782;37.452;2022-08-18T16:03:16;2.47;;;2.08;;